sensor_id;sensor_type;location;lat;lon;timestamp;temperature;humidity
74940;HTU21D;63505;45.226;37.908;2023-12-28T00:00:47;5.76;79.88
74940;HTU21D;63505;45.226;37.908;2023-12-28T00:03:13;5.72;79.85
74940;HTU21D;63505;45.226;37.908;2023-12-28T00:05:39;5.71;79.88
74940;HTU21D;63505;45.226;37.908;2023-12-28T00:08:05;5.68;79.87
74940;HTU21D;63505;45.226;37.908;2023-12-28T00:10:31;5.66;79.88
74940;HTU21D;63505;45.226;37.908;2023-12-28T00:12:57;5.62;79.91
74940;HTU21D;63505;45.226;37.908;2023-12-28T00:15:23;5.59;79.93
74940;HTU21D;63505;45.226;37.908;2023-12-28T00:17:48;5.56;79.96
74940;HTU21D;63505;45.226;37.908;2023-12-28T00:20:14;5.52;79.98
74940;HTU21D;63505;45.226;37.908;2023-12-28T00:22:40;5.50;79.99
74940;HTU21D;63505;45.226;37.908;2023-12-28T00:25:06;5.45;80.01
74940;HTU21D;63505;45.226;37.908;2023-12-28T00:27:32;5.39;80.05
74940;HTU21D;63505;45.226;37.908;2023-12-28T00:30:01;5.35;80.11
74940;HTU21D;63505;45.226;37.908;2023-12-28T00:32:27;5.28;80.14
74940;HTU21D;63505;45.226;37.908;2023-12-28T00:34:53;5.24;80.18
74940;HTU21D;63505;45.226;37.908;2023-12-28T00:37:18;5.22;80.22
74940;HTU21D;63505;45.226;37.908;2023-12-28T00:39:44;5.18;80.25
74940;HTU21D;63505;45.226;37.908;2023-12-28T00:42:12;5.16;80.27
74940;HTU21D;63505;45.226;37.908;2023-12-28T00:44:39;5.15;80.27
74940;HTU21D;63505;45.226;37.908;2023-12-28T00:47:04;5.15;80.25
74940;HTU21D;63505;45.226;37.908;2023-12-28T00:49:32;5.17;80.20
74940;HTU21D;63505;45.226;37.908;2023-12-28T00:51:58;5.16;80.17
74940;HTU21D;63505;45.226;37.908;2023-12-28T00:54:24;5.17;80.12
74940;HTU21D;63505;45.226;37.908;2023-12-28T00:56:50;5.15;80.09
74940;HTU21D;63505;45.226;37.908;2023-12-28T00:59:16;5.13;80.11
74940;HTU21D;63505;45.226;37.908;2023-12-28T01:01:42;5.12;80.11
74940;HTU21D;63505;45.226;37.908;2023-12-28T01:04:09;5.12;80.09
74940;HTU21D;63505;45.226;37.908;2023-12-28T01:06:35;5.12;80.07
74940;HTU21D;63505;45.226;37.908;2023-12-28T01:09:01;5.10;80.04
74940;HTU21D;63505;45.226;37.908;2023-12-28T01:11:26;5.05;80.03
74940;HTU21D;63505;45.226;37.908;2023-12-28T01:13:53;4.98;80.07
74940;HTU21D;63505;45.226;37.908;2023-12-28T01:16:19;4.94;80.15
74940;HTU21D;63505;45.226;37.908;2023-12-28T01:18:45;4.88;80.20
74940;HTU21D;63505;45.226;37.908;2023-12-28T01:21:11;4.83;80.22
74940;HTU21D;63505;45.226;37.908;2023-12-28T01:23:37;4.78;80.26
74940;HTU21D;63505;45.226;37.908;2023-12-28T01:26:03;4.72;80.33
74940;HTU21D;63505;45.226;37.908;2023-12-28T01:28:29;4.68;80.38
74940;HTU21D;63505;45.226;37.908;2023-12-28T01:30:55;4.63;80.38
74940;HTU21D;63505;45.226;37.908;2023-12-28T01:33:21;4.60;80.43
74940;HTU21D;63505;45.226;37.908;2023-12-28T01:35:47;4.51;80.47
74940;HTU21D;63505;45.226;37.908;2023-12-28T01:38:12;4.47;80.54
74940;HTU21D;63505;45.226;37.908;2023-12-28T01:40:44;4.44;80.56
74940;HTU21D;63505;45.226;37.908;2023-12-28T01:43:10;4.42;80.56
74940;HTU21D;63505;45.226;37.908;2023-12-28T01:45:36;4.36;80.59
74940;HTU21D;63505;45.226;37.908;2023-12-28T01:48:03;4.34;80.62
74940;HTU21D;63505;45.226;37.908;2023-12-28T01:50:30;4.34;80.61
74940;HTU21D;63505;45.226;37.908;2023-12-28T01:52:58;4.32;80.62
74940;HTU21D;63505;45.226;37.908;2023-12-28T01:55:27;4.31;80.60
74940;HTU21D;63505;45.226;37.908;2023-12-28T01:57:54;4.28;80.62
74940;HTU21D;63505;45.226;37.908;2023-12-28T02:00:21;4.27;80.62
74940;HTU21D;63505;45.226;37.908;2023-12-28T02:02:50;4.27;80.62
74940;HTU21D;63505;45.226;37.908;2023-12-28T02:05:17;4.23;80.59
74940;HTU21D;63505;45.226;37.908;2023-12-28T02:07:43;4.22;80.61
74940;HTU21D;63505;45.226;37.908;2023-12-28T02:10:09;4.21;80.62
74940;HTU21D;63505;45.226;37.908;2023-12-28T02:12:35;4.20;80.61
74940;HTU21D;63505;45.226;37.908;2023-12-28T02:15:01;4.18;80.60
74940;HTU21D;63505;45.226;37.908;2023-12-28T02:17:37;4.17;80.64
74940;HTU21D;63505;45.226;37.908;2023-12-28T02:20:07;4.16;80.66
74940;HTU21D;63505;45.226;37.908;2023-12-28T02:22:34;4.15;80.65
74940;HTU21D;63505;45.226;37.908;2023-12-28T02:25:10;4.14;80.72
74940;HTU21D;63505;45.226;37.908;2023-12-28T02:27:47;4.14;80.72
74940;HTU21D;63505;45.226;37.908;2023-12-28T02:30:15;4.16;80.72
74940;HTU21D;63505;45.226;37.908;2023-12-28T02:32:51;4.18;80.72
74940;HTU21D;63505;45.226;37.908;2023-12-28T02:35:34;4.21;80.67
74940;HTU21D;63505;45.226;37.908;2023-12-28T02:38:11;4.21;80.65
74940;HTU21D;63505;45.226;37.908;2023-12-28T02:40:40;4.26;80.65
74940;HTU21D;63505;45.226;37.908;2023-12-28T02:43:09;4.26;80.63
74940;HTU21D;63505;45.226;37.908;2023-12-28T02:45:36;4.27;80.59
74940;HTU21D;63505;45.226;37.908;2023-12-28T02:48:03;4.23;80.59
74940;HTU21D;63505;45.226;37.908;2023-12-28T02:50:29;4.21;80.58
74940;HTU21D;63505;45.226;37.908;2023-12-28T02:53:00;4.19;80.64
74940;HTU21D;63505;45.226;37.908;2023-12-28T02:55:26;4.17;80.65
74940;HTU21D;63505;45.226;37.908;2023-12-28T02:57:55;4.15;80.69
74940;HTU21D;63505;45.226;37.908;2023-12-28T03:00:21;4.12;80.71
74940;HTU21D;63505;45.226;37.908;2023-12-28T03:02:47;4.07;80.76
74940;HTU21D;63505;45.226;37.908;2023-12-28T03:05:13;4.05;80.85
74940;HTU21D;63505;45.226;37.908;2023-12-28T03:07:39;4.06;80.89
74940;HTU21D;63505;45.226;37.908;2023-12-28T03:10:06;4.08;80.90
74940;HTU21D;63505;45.226;37.908;2023-12-28T03:12:32;4.14;80.88
74940;HTU21D;63505;45.226;37.908;2023-12-28T03:14:58;4.19;80.87
74940;HTU21D;63505;45.226;37.908;2023-12-28T03:17:24;4.26;80.81
74940;HTU21D;63505;45.226;37.908;2023-12-28T03:19:51;4.29;80.79
74940;HTU21D;63505;45.226;37.908;2023-12-28T03:22:17;4.33;80.75
74940;HTU21D;63505;45.226;37.908;2023-12-28T03:24:44;4.39;80.72
74940;HTU21D;63505;45.226;37.908;2023-12-28T03:27:10;4.44;80.65
74940;HTU21D;63505;45.226;37.908;2023-12-28T03:29:36;4.47;80.65
74940;HTU21D;63505;45.226;37.908;2023-12-28T03:32:02;4.49;80.64
74940;HTU21D;63505;45.226;37.908;2023-12-28T03:34:28;4.50;80.65
74940;HTU21D;63505;45.226;37.908;2023-12-28T03:36:56;4.53;80.66
74940;HTU21D;63505;45.226;37.908;2023-12-28T03:39:23;4.56;80.66
74940;HTU21D;63505;45.226;37.908;2023-12-28T03:41:49;4.59;80.66
74940;HTU21D;63505;45.226;37.908;2023-12-28T03:44:14;4.58;80.63
74940;HTU21D;63505;45.226;37.908;2023-12-28T03:46:40;4.58;80.68
74940;HTU21D;63505;45.226;37.908;2023-12-28T03:49:06;4.54;80.68
74940;HTU21D;63505;45.226;37.908;2023-12-28T03:51:32;4.51;80.71
74940;HTU21D;63505;45.226;37.908;2023-12-28T03:53:58;4.49;80.78
74940;HTU21D;63505;45.226;37.908;2023-12-28T03:56:25;4.44;80.85
74940;HTU21D;63505;45.226;37.908;2023-12-28T03:58:53;4.45;80.91
74940;HTU21D;63505;45.226;37.908;2023-12-28T04:01:21;4.42;80.90
74940;HTU21D;63505;45.226;37.908;2023-12-28T04:03:49;4.34;80.92
74940;HTU21D;63505;45.226;37.908;2023-12-28T04:06:15;4.30;81.03
74940;HTU21D;63505;45.226;37.908;2023-12-28T04:08:41;4.30;81.07
74940;HTU21D;63505;45.226;37.908;2023-12-28T04:11:08;4.29;81.07
74940;HTU21D;63505;45.226;37.908;2023-12-28T04:13:35;4.26;81.10
74940;HTU21D;63505;45.226;37.908;2023-12-28T04:16:01;4.22;81.10
74940;HTU21D;63505;45.226;37.908;2023-12-28T04:18:27;4.19;81.14
74940;HTU21D;63505;45.226;37.908;2023-12-28T04:20:53;4.15;81.14
74940;HTU21D;63505;45.226;37.908;2023-12-28T04:23:19;4.09;81.17
74940;HTU21D;63505;45.226;37.908;2023-12-28T04:25:45;4.04;81.23
74940;HTU21D;63505;45.226;37.908;2023-12-28T04:28:12;4.00;81.26
74940;HTU21D;63505;45.226;37.908;2023-12-28T04:30:38;3.97;81.26
74940;HTU21D;63505;45.226;37.908;2023-12-28T04:33:04;3.93;81.33
74940;HTU21D;63505;45.226;37.908;2023-12-28T04:35:30;3.93;81.34
74940;HTU21D;63505;45.226;37.908;2023-12-28T04:37:56;3.92;81.36
74940;HTU21D;63505;45.226;37.908;2023-12-28T04:40:22;3.93;81.33
74940;HTU21D;63505;45.226;37.908;2023-12-28T04:42:48;3.93;81.33
74940;HTU21D;63505;45.226;37.908;2023-12-28T04:45:14;3.97;81.32
74940;HTU21D;63505;45.226;37.908;2023-12-28T04:47:40;3.98;81.27
74940;HTU21D;63505;45.226;37.908;2023-12-28T04:50:06;3.97;81.23
74940;HTU21D;63505;45.226;37.908;2023-12-28T04:52:32;3.95;81.20
74940;HTU21D;63505;45.226;37.908;2023-12-28T04:54:59;3.91;81.21
74940;HTU21D;63505;45.226;37.908;2023-12-28T04:57:25;3.89;81.23
74940;HTU21D;63505;45.226;37.908;2023-12-28T04:59:53;3.85;81.26
74940;HTU21D;63505;45.226;37.908;2023-12-28T05:02:20;3.79;81.30
74940;HTU21D;63505;45.226;37.908;2023-12-28T05:04:46;3.76;81.33
74940;HTU21D;63505;45.226;37.908;2023-12-28T05:07:12;3.73;81.38
74940;HTU21D;63505;45.226;37.908;2023-12-28T05:09:38;3.72;81.38
74940;HTU21D;63505;45.226;37.908;2023-12-28T05:12:04;3.68;81.41
74940;HTU21D;63505;45.226;37.908;2023-12-28T05:14:30;3.67;81.45
74940;HTU21D;63505;45.226;37.908;2023-12-28T05:16:56;3.64;81.46
74940;HTU21D;63505;45.226;37.908;2023-12-28T05:19:21;3.62;81.46
74940;HTU21D;63505;45.226;37.908;2023-12-28T05:21:47;3.60;81.46
74940;HTU21D;63505;45.226;37.908;2023-12-28T05:24:13;3.59;81.48
74940;HTU21D;63505;45.226;37.908;2023-12-28T05:26:39;3.58;81.48
74940;HTU21D;63505;45.226;37.908;2023-12-28T05:29:05;3.58;81.48
74940;HTU21D;63505;45.226;37.908;2023-12-28T05:31:31;3.57;81.46
74940;HTU21D;63505;45.226;37.908;2023-12-28T05:33:57;3.57;81.46
74940;HTU21D;63505;45.226;37.908;2023-12-28T05:36:24;3.58;81.50
74940;HTU21D;63505;45.226;37.908;2023-12-28T05:38:50;3.65;81.46
74940;HTU21D;63505;45.226;37.908;2023-12-28T05:41:16;3.73;81.36
74940;HTU21D;63505;45.226;37.908;2023-12-28T05:43:42;3.80;81.23
74940;HTU21D;63505;45.226;37.908;2023-12-28T05:46:08;3.85;81.10
74940;HTU21D;63505;45.226;37.908;2023-12-28T05:48:34;3.87;81.07
74940;HTU21D;63505;45.226;37.908;2023-12-28T05:51:00;3.93;81.03
74940;HTU21D;63505;45.226;37.908;2023-12-28T05:53:26;3.97;80.98
74940;HTU21D;63505;45.226;37.908;2023-12-28T05:55:53;4.06;81.00
74940;HTU21D;63505;45.226;37.908;2023-12-28T05:58:19;4.18;80.92
74940;HTU21D;63505;45.226;37.908;2023-12-28T06:00:45;4.28;80.85
74940;HTU21D;63505;45.226;37.908;2023-12-28T06:03:14;4.35;80.68
74940;HTU21D;63505;45.226;37.908;2023-12-28T06:05:40;4.46;80.69
74940;HTU21D;63505;45.226;37.908;2023-12-28T06:08:06;4.48;80.43
74940;HTU21D;63505;45.226;37.908;2023-12-28T06:10:32;4.49;80.58
74940;HTU21D;63505;45.226;37.908;2023-12-28T06:12:58;4.50;80.45
74940;HTU21D;63505;45.226;37.908;2023-12-28T06:15:24;4.56;80.59
74940;HTU21D;63505;45.226;37.908;2023-12-28T06:17:49;4.65;80.52
74940;HTU21D;63505;45.226;37.908;2023-12-28T06:20:15;4.75;80.50
74940;HTU21D;63505;45.226;37.908;2023-12-28T06:22:41;4.92;80.38
74940;HTU21D;63505;45.226;37.908;2023-12-28T06:25:08;4.89;80.11
74940;HTU21D;63505;45.226;37.908;2023-12-28T06:27:36;4.83;80.35
74940;HTU21D;63505;45.226;37.908;2023-12-28T06:30:02;4.95;80.32
74940;HTU21D;63505;45.226;37.908;2023-12-28T06:32:28;5.07;80.33
74940;HTU21D;63505;45.226;37.908;2023-12-28T06:34:54;5.23;80.13
74940;HTU21D;63505;45.226;37.908;2023-12-28T06:37:20;5.42;80.01
74940;HTU21D;63505;45.226;37.908;2023-12-28T06:39:46;5.63;79.71
74940;HTU21D;63505;45.226;37.908;2023-12-28T06:42:11;5.79;79.49
74940;HTU21D;63505;45.226;37.908;2023-12-28T06:44:37;5.94;79.24
74940;HTU21D;63505;45.226;37.908;2023-12-28T06:47:03;6.02;79.11
74940;HTU21D;63505;45.226;37.908;2023-12-28T06:49:29;6.08;79.09
74940;HTU21D;63505;45.226;37.908;2023-12-28T06:51:55;6.12;79.01
74940;HTU21D;63505;45.226;37.908;2023-12-28T06:54:21;6.05;78.94
74940;HTU21D;63505;45.226;37.908;2023-12-28T06:56:47;5.92;79.08
74940;HTU21D;63505;45.226;37.908;2023-12-28T06:59:12;5.96;79.38
74940;HTU21D;63505;45.226;37.908;2023-12-28T07:01:39;6.09;79.36
74940;HTU21D;63505;45.226;37.908;2023-12-28T07:04:05;6.26;79.21
74940;HTU21D;63505;45.226;37.908;2023-12-28T07:06:31;6.31;78.85
74940;HTU21D;63505;45.226;37.908;2023-12-28T07:08:57;6.17;78.82
74940;HTU21D;63505;45.226;37.908;2023-12-28T07:11:23;6.15;79.21
74940;HTU21D;63505;45.226;37.908;2023-12-28T07:13:49;6.28;79.21
74940;HTU21D;63505;45.226;37.908;2023-12-28T07:16:15;6.37;79.19
74940;HTU21D;63505;45.226;37.908;2023-12-28T07:18:41;6.54;79.08
74940;HTU21D;63505;45.226;37.908;2023-12-28T07:21:07;6.74;78.91
74940;HTU21D;63505;45.226;37.908;2023-12-28T07:23:37;6.91;78.64
74940;HTU21D;63505;45.226;37.908;2023-12-28T07:26:04;7.08;78.33
74940;HTU21D;63505;45.226;37.908;2023-12-28T07:28:30;7.16;78.22
74940;HTU21D;63505;45.226;37.908;2023-12-28T07:30:56;7.27;78.05
74940;HTU21D;63505;45.226;37.908;2023-12-28T07:33:22;7.39;78.11
74940;HTU21D;63505;45.226;37.908;2023-12-28T07:35:48;7.59;77.93
74940;HTU21D;63505;45.226;37.908;2023-12-28T07:38:14;7.61;77.60
74940;HTU21D;63505;45.226;37.908;2023-12-28T07:40:40;7.57;77.83
74940;HTU21D;63505;45.226;37.908;2023-12-28T07:43:06;7.45;77.82
74940;HTU21D;63505;45.226;37.908;2023-12-28T07:45:32;7.32;78.30
74940;HTU21D;63505;45.226;37.908;2023-12-28T07:48:01;7.42;78.53
74940;HTU21D;63505;45.226;37.908;2023-12-28T07:50:27;7.56;78.52
74940;HTU21D;63505;45.226;37.908;2023-12-28T07:52:53;7.60;78.29
74940;HTU21D;63505;45.226;37.908;2023-12-28T07:55:18;7.68;78.30
74940;HTU21D;63505;45.226;37.908;2023-12-28T07:57:45;7.75;78.18
74940;HTU21D;63505;45.226;37.908;2023-12-28T08:00:11;7.90;78.07
74940;HTU21D;63505;45.226;37.908;2023-12-28T08:02:37;8.06;77.88
74940;HTU21D;63505;45.226;37.908;2023-12-28T08:05:04;8.21;77.47
74940;HTU21D;63505;45.226;37.908;2023-12-28T08:07:30;8.27;77.21
74940;HTU21D;63505;45.226;37.908;2023-12-28T08:09:56;8.33;77.40
74940;HTU21D;63505;45.226;37.908;2023-12-28T08:12:22;8.39;77.08
74940;HTU21D;63505;45.226;37.908;2023-12-28T08:14:50;8.32;77.04
74940;HTU21D;63505;45.226;37.908;2023-12-28T08:17:16;8.27;77.15
74940;HTU21D;63505;45.226;37.908;2023-12-28T08:19:42;8.24;77.22
74940;HTU21D;63505;45.226;37.908;2023-12-28T08:22:08;8.24;77.39
74940;HTU21D;63505;45.226;37.908;2023-12-28T08:24:34;8.37;77.29
74940;HTU21D;63505;45.226;37.908;2023-12-28T08:27:02;8.43;76.82
74940;HTU21D;63505;45.226;37.908;2023-12-28T08:29:28;8.47;76.82
74940;HTU21D;63505;45.226;37.908;2023-12-28T08:31:54;8.42;76.73
74940;HTU21D;63505;45.226;37.908;2023-12-28T08:34:21;8.38;76.90
74940;HTU21D;63505;45.226;37.908;2023-12-28T08:36:47;8.22;76.88
74940;HTU21D;63505;45.226;37.908;2023-12-28T08:39:13;8.08;76.98
74940;HTU21D;63505;45.226;37.908;2023-12-28T08:41:39;8.02;77.23
74940;HTU21D;63505;45.226;37.908;2023-12-28T08:44:04;8.09;77.31
74940;HTU21D;63505;45.226;37.908;2023-12-28T08:46:30;8.24;76.94
74940;HTU21D;63505;45.226;37.908;2023-12-28T08:48:56;8.35;76.56
74940;HTU21D;63505;45.226;37.908;2023-12-28T08:51:22;8.58;76.20
74940;HTU21D;63505;45.226;37.908;2023-12-28T08:53:48;8.77;75.58
74940;HTU21D;63505;45.226;37.908;2023-12-28T08:56:20;8.94;75.16
74940;HTU21D;63505;45.226;37.908;2023-12-28T08:58:46;8.96;75.04
74940;HTU21D;63505;45.226;37.908;2023-12-28T09:01:19;9.02;74.70
74940;HTU21D;63505;45.226;37.908;2023-12-28T09:03:50;8.91;74.58
74940;HTU21D;63505;45.226;37.908;2023-12-28T09:06:16;8.71;75.04
74940;HTU21D;63505;45.226;37.908;2023-12-28T09:08:42;8.74;75.36
74940;HTU21D;63505;45.226;37.908;2023-12-28T09:11:10;8.81;75.34
74940;HTU21D;63505;45.226;37.908;2023-12-28T09:13:37;9.02;75.28
74940;HTU21D;63505;45.226;37.908;2023-12-28T09:16:03;9.29;74.83
74940;HTU21D;63505;45.226;37.908;2023-12-28T09:18:29;9.42;74.09
74940;HTU21D;63505;45.226;37.908;2023-12-28T09:20:55;9.30;73.98
74940;HTU21D;63505;45.226;37.908;2023-12-28T09:23:21;9.21;74.25
74940;HTU21D;63505;45.226;37.908;2023-12-28T09:25:47;9.15;74.37
74940;HTU21D;63505;45.226;37.908;2023-12-28T09:28:13;9.09;74.54
74940;HTU21D;63505;45.226;37.908;2023-12-28T09:30:38;9.15;74.51
74940;HTU21D;63505;45.226;37.908;2023-12-28T09:33:04;9.23;74.42
74940;HTU21D;63505;45.226;37.908;2023-12-28T09:35:31;9.34;74.24
74940;HTU21D;63505;45.226;37.908;2023-12-28T09:37:56;9.46;73.81
74940;HTU21D;63505;45.226;37.908;2023-12-28T09:40:24;9.52;73.83
74940;HTU21D;63505;45.226;37.908;2023-12-28T09:45:40;9.83;73.29
74940;HTU21D;63505;45.226;37.908;2023-12-28T09:48:06;9.88;73.33
74940;HTU21D;63505;45.226;37.908;2023-12-28T09:50:33;9.80;73.37
74940;HTU21D;63505;45.226;37.908;2023-12-28T09:52:59;9.83;73.51
74940;HTU21D;63505;45.226;37.908;2023-12-28T09:55:24;9.76;73.51
74940;HTU21D;63505;45.226;37.908;2023-12-28T09:57:54;9.72;73.49
74940;HTU21D;63505;45.226;37.908;2023-12-28T10:00:22;9.70;73.39
74940;HTU21D;63505;45.226;37.908;2023-12-28T10:02:48;9.67;73.54
74940;HTU21D;63505;45.226;37.908;2023-12-28T10:05:14;9.75;73.41
74940;HTU21D;63505;45.226;37.908;2023-12-28T10:07:44;9.94;73.62
74940;HTU21D;63505;45.226;37.908;2023-12-28T10:10:10;10.06;73.30
74940;HTU21D;63505;45.226;37.908;2023-12-28T10:12:37;10.18;73.31
74940;HTU21D;63505;45.226;37.908;2023-12-28T10:15:06;10.40;73.21
74940;HTU21D;63505;45.226;37.908;2023-12-28T10:17:33;10.51;73.12
74940;HTU21D;63505;45.226;37.908;2023-12-28T10:20:00;10.48;72.87
74940;HTU21D;63505;45.226;37.908;2023-12-28T10:22:31;10.39;73.09
74940;HTU21D;63505;45.226;37.908;2023-12-28T10:24:59;10.36;73.34
74940;HTU21D;63505;45.226;37.908;2023-12-28T10:27:26;10.49;73.45
74940;HTU21D;63505;45.226;37.908;2023-12-28T10:29:54;10.63;73.36
74940;HTU21D;63505;45.226;37.908;2023-12-28T10:32:21;10.78;73.28
74940;HTU21D;63505;45.226;37.908;2023-12-28T10:34:48;10.95;73.16
74940;HTU21D;63505;45.226;37.908;2023-12-28T10:37:16;11.05;72.99
74940;HTU21D;63505;45.226;37.908;2023-12-28T10:39:47;11.01;72.91
74940;HTU21D;63505;45.226;37.908;2023-12-28T10:42:21;10.71;73.27
74940;HTU21D;63505;45.226;37.908;2023-12-28T10:44:50;10.44;73.95
74940;HTU21D;63505;45.226;37.908;2023-12-28T10:47:19;10.33;74.45
74940;HTU21D;63505;45.226;37.908;2023-12-28T10:49:48;10.23;74.44
74940;HTU21D;63505;45.226;37.908;2023-12-28T10:52:16;9.97;74.75
74940;HTU21D;63505;45.226;37.908;2023-12-28T10:55:06;9.68;75.22
74940;HTU21D;63505;45.226;37.908;2023-12-28T11:00:20;9.32;75.86
74940;HTU21D;63505;45.226;37.908;2023-12-28T11:02:49;9.40;76.04
74940;HTU21D;63505;45.226;37.908;2023-12-28T11:05:19;9.63;76.01
74940;HTU21D;63505;45.226;37.908;2023-12-28T11:07:47;9.94;75.63
74940;HTU21D;63505;45.226;37.908;2023-12-28T11:10:13;10.14;75.12
74940;HTU21D;63505;45.226;37.908;2023-12-28T11:12:39;10.21;75.16
74940;HTU21D;63505;45.226;37.908;2023-12-28T11:15:06;10.25;75.28
74940;HTU21D;63505;45.226;37.908;2023-12-28T11:17:33;10.34;75.45
74940;HTU21D;63505;45.226;37.908;2023-12-28T11:20:02;10.40;75.48
74940;HTU21D;63505;45.226;37.908;2023-12-28T11:22:31;10.39;75.56
74940;HTU21D;63505;45.226;37.908;2023-12-28T11:24:57;10.40;75.50
74940;HTU21D;63505;45.226;37.908;2023-12-28T11:27:25;10.41;75.14
74940;HTU21D;63505;45.226;37.908;2023-12-28T11:29:51;10.43;74.92
74940;HTU21D;63505;45.226;37.908;2023-12-28T11:32:19;10.38;74.52
74940;HTU21D;63505;45.226;37.908;2023-12-28T11:34:45;10.33;74.46
74940;HTU21D;63505;45.226;37.908;2023-12-28T11:37:17;10.44;74.64
74940;HTU21D;63505;45.226;37.908;2023-12-28T11:39:49;10.69;74.50
74940;HTU21D;63505;45.226;37.908;2023-12-28T11:42:19;10.79;74.15
74940;HTU21D;63505;45.226;37.908;2023-12-28T11:44:46;10.69;74.14
74940;HTU21D;63505;45.226;37.908;2023-12-28T11:47:22;10.67;74.51
74940;HTU21D;63505;45.226;37.908;2023-12-28T11:49:50;10.81;74.75
74940;HTU21D;63505;45.226;37.908;2023-12-28T11:52:27;10.78;74.55
74940;HTU21D;63505;45.226;37.908;2023-12-28T11:54:54;10.82;74.51
74940;HTU21D;63505;45.226;37.908;2023-12-28T11:57:20;10.82;74.56
74940;HTU21D;63505;45.226;37.908;2023-12-28T11:59:51;10.75;74.51
74940;HTU21D;63505;45.226;37.908;2023-12-28T12:02:18;10.73;74.31
74940;HTU21D;63505;45.226;37.908;2023-12-28T12:04:44;10.68;74.35
74940;HTU21D;63505;45.226;37.908;2023-12-28T12:07:10;10.70;74.64
74940;HTU21D;63505;45.226;37.908;2023-12-28T12:09:36;10.75;74.85
74940;HTU21D;63505;45.226;37.908;2023-12-28T12:12:02;10.66;74.82
74940;HTU21D;63505;45.226;37.908;2023-12-28T12:14:29;10.59;75.01
74940;HTU21D;63505;45.226;37.908;2023-12-28T12:16:56;10.58;74.96
74940;HTU21D;63505;45.226;37.908;2023-12-28T12:19:25;10.49;74.89
74940;HTU21D;63505;45.226;37.908;2023-12-28T12:21:52;10.42;75.01
74940;HTU21D;63505;45.226;37.908;2023-12-28T12:24:19;10.33;74.67
74940;HTU21D;63505;45.226;37.908;2023-12-28T12:26:49;10.19;74.67
74940;HTU21D;63505;45.226;37.908;2023-12-28T12:29:15;10.11;74.92
74940;HTU21D;63505;45.226;37.908;2023-12-28T12:31:41;10.10;75.10
74940;HTU21D;63505;45.226;37.908;2023-12-28T12:34:09;9.92;74.97
74940;HTU21D;63505;45.226;37.908;2023-12-28T12:36:35;9.78;75.04
74940;HTU21D;63505;45.226;37.908;2023-12-28T12:39:01;9.69;75.13
74940;HTU21D;63505;45.226;37.908;2023-12-28T12:41:35;9.51;74.96
74940;HTU21D;63505;45.226;37.908;2023-12-28T12:44:01;9.37;74.82
74940;HTU21D;63505;45.226;37.908;2023-12-28T12:46:27;9.15;74.71
74940;HTU21D;63505;45.226;37.908;2023-12-28T12:49:02;9.02;74.90
74940;HTU21D;63505;45.226;37.908;2023-12-28T12:51:29;9.03;75.15
74940;HTU21D;63505;45.226;37.908;2023-12-28T12:53:59;9.02;75.10
74940;HTU21D;63505;45.226;37.908;2023-12-28T12:56:29;8.93;75.19
74940;HTU21D;63505;45.226;37.908;2023-12-28T12:58:55;8.85;75.40
74940;HTU21D;63505;45.226;37.908;2023-12-28T13:01:21;8.79;75.57
74940;HTU21D;63505;45.226;37.908;2023-12-28T13:03:47;8.75;75.68
74940;HTU21D;63505;45.226;37.908;2023-12-28T13:06:13;8.66;75.78
74940;HTU21D;63505;45.226;37.908;2023-12-28T13:08:39;8.56;75.85
74940;HTU21D;63505;45.226;37.908;2023-12-28T13:11:05;8.42;75.86
74940;HTU21D;63505;45.226;37.908;2023-12-28T13:13:34;8.22;75.79
74940;HTU21D;63505;45.226;37.908;2023-12-28T13:16:01;8.02;75.77
74940;HTU21D;63505;45.226;37.908;2023-12-28T13:18:27;7.84;75.75
74940;HTU21D;63505;45.226;37.908;2023-12-28T13:20:53;7.67;75.70
74940;HTU21D;63505;45.226;37.908;2023-12-28T13:23:19;7.46;75.67
74940;HTU21D;63505;45.226;37.908;2023-12-28T13:25:45;7.29;75.62
74940;HTU21D;63505;45.226;37.908;2023-12-28T13:28:10;7.12;75.57
74940;HTU21D;63505;45.226;37.908;2023-12-28T13:30:38;6.95;75.57
74940;HTU21D;63505;45.226;37.908;2023-12-28T13:33:05;6.83;75.50
74940;HTU21D;63505;45.226;37.908;2023-12-28T13:35:31;6.69;75.46
74940;HTU21D;63505;45.226;37.908;2023-12-28T13:38:00;6.55;75.40
74940;HTU21D;63505;45.226;37.908;2023-12-28T13:40:27;6.42;75.39
74940;HTU21D;63505;45.226;37.908;2023-12-28T13:42:54;6.30;75.38
74940;HTU21D;63505;45.226;37.908;2023-12-28T13:45:19;6.19;75.31
74940;HTU21D;63505;45.226;37.908;2023-12-28T13:47:45;6.06;75.30
74940;HTU21D;63505;45.226;37.908;2023-12-28T13:50:11;5.94;75.33
74940;HTU21D;63505;45.226;37.908;2023-12-28T13:52:37;5.83;75.27
74940;HTU21D;63505;45.226;37.908;2023-12-28T13:55:03;5.71;75.30
74940;HTU21D;63505;45.226;37.908;2023-12-28T13:57:29;5.65;75.26
74940;HTU21D;63505;45.226;37.908;2023-12-28T13:59:55;5.59;75.25
74940;HTU21D;63505;45.226;37.908;2023-12-28T14:02:26;5.51;75.18
74940;HTU21D;63505;45.226;37.908;2023-12-28T14:04:52;5.46;75.17
74940;HTU21D;63505;45.226;37.908;2023-12-28T14:07:19;5.41;75.12
74940;HTU21D;63505;45.226;37.908;2023-12-28T14:09:45;5.35;75.10
74940;HTU21D;63505;45.226;37.908;2023-12-28T14:12:11;5.28;75.06
74940;HTU21D;63505;45.226;37.908;2023-12-28T14:14:37;5.23;75.06
74940;HTU21D;63505;45.226;37.908;2023-12-28T14:17:02;5.17;75.06
74940;HTU21D;63505;45.226;37.908;2023-12-28T14:19:30;5.10;75.05
74940;HTU21D;63505;45.226;37.908;2023-12-28T14:21:56;5.04;75.08
74940;HTU21D;63505;45.226;37.908;2023-12-28T14:24:22;4.96;75.09
74940;HTU21D;63505;45.226;37.908;2023-12-28T14:26:52;4.92;75.12
74940;HTU21D;63505;45.226;37.908;2023-12-28T14:29:20;4.86;75.14
74940;HTU21D;63505;45.226;37.908;2023-12-28T14:31:46;4.80;75.15
74940;HTU21D;63505;45.226;37.908;2023-12-28T14:34:13;4.76;75.17
74940;HTU21D;63505;45.226;37.908;2023-12-28T14:36:39;4.74;75.27
74940;HTU21D;63505;45.226;37.908;2023-12-28T14:39:07;4.73;75.11
74940;HTU21D;63505;45.226;37.908;2023-12-28T14:41:33;4.66;75.12
74940;HTU21D;63505;45.226;37.908;2023-12-28T14:43:59;4.58;75.17
74940;HTU21D;63505;45.226;37.908;2023-12-28T14:46:26;4.48;75.13
74940;HTU21D;63505;45.226;37.908;2023-12-28T14:48:52;4.35;75.29
74940;HTU21D;63505;45.226;37.908;2023-12-28T14:51:18;4.27;75.42
74940;HTU21D;63505;45.226;37.908;2023-12-28T14:53:45;4.21;75.47
74940;HTU21D;63505;45.226;37.908;2023-12-28T14:56:11;4.17;75.50
74940;HTU21D;63505;45.226;37.908;2023-12-28T14:58:41;4.10;75.56
74940;HTU21D;63505;45.226;37.908;2023-12-28T15:01:13;4.10;75.59
74940;HTU21D;63505;45.226;37.908;2023-12-28T15:03:40;4.15;75.52
74940;HTU21D;63505;45.226;37.908;2023-12-28T15:06:06;4.24;75.41
74940;HTU21D;63505;45.226;37.908;2023-12-28T15:08:33;4.27;75.22
74940;HTU21D;63505;45.226;37.908;2023-12-28T15:11:01;4.24;75.15
74940;HTU21D;63505;45.226;37.908;2023-12-28T15:13:28;4.22;75.19
74940;HTU21D;63505;45.226;37.908;2023-12-28T15:15:55;4.23;75.20
74940;HTU21D;63505;45.226;37.908;2023-12-28T15:18:23;4.23;75.20